K&a Sp — 3FVZ3 — position and weather

sailwx.info

Track history (hours):
 
Tides and Currents Weather Stations Pressure Air Temp Water Temp Dewpoint Dewpoint Depression Visibility Wind Speed Wind Dir Waves Ship Positions

K&a Sp

Last reported at 2016-Feb-12 00:32 UTC. Time now 2016-Feb-12 01:27 UTC.
Position N 35°29' E 139°43'.

Length 177 m; draft 7.1 m.

Type: Cargo ship. MMSI: 354085000.

Date/timePositionNaut miles runAvg speedWind from/ knotsBaromVisibWave heightAir tempDewpointWater temp
2016-Feb-12 00:32N 35°29' E 139°43'0 0.0
2016-Feb-11 23:32N 35°29' E 139°43'0 0.0
2016-Feb-11 22:32N 35°29' E 139°43'3 3.5
2016-Feb-11 21:33N 35°27' E 139°45'0 0.1
2016-Feb-11 20:33N 35°27' E 139°45'0 0.1
2016-Feb-11 19:33N 35°27' E 139°45'0 0.0
2016-Feb-11 18:33N 35°27' E 139°45'0 0.1
2016-Feb-11 17:33N 35°27' E 139°45'0 0.1
2016-Feb-11 16:33N 35°27' E 139°45'0 0.0
2016-Feb-11 15:33N 35°26' E 139°45'0 0.0
2016-Feb-11 14:30N 35°27' E 139°45'0 0.0
2016-Feb-11 13:33N 35°27' E 139°45'0 0.0
2016-Feb-11 12:33N 35°27' E 139°45'0 0.0
2016-Feb-11 11:33N 35°27' E 139°45'0 0.0
2016-Feb-11 10:33N 35°27' E 139°45'0 0.0
2016-Feb-11 09:33N 35°27' E 139°45'0 0.1
2016-Feb-11 08:33N 35°27' E 139°45'0 0.0
2016-Feb-11 07:33N 35°27' E 139°45'0 0.0
2016-Feb-11 06:33N 35°27' E 139°45'0 0.0
2016-Feb-11 05:33N 35°27' E 139°45'0 0.1
2016-Feb-11 04:33N 35°27' E 139°45'0 0.0
2016-Feb-11 03:33N 35°26' E 139°45'0 0.0
2016-Feb-11 02:33N 35°26' E 139°45'0 0.0
2016-Feb-11 01:33N 35°26' E 139°45'0 0.1
2016-Feb-11 00:33N 35°26' E 139°45'0 0.0
2016-Feb-10 23:33N 35°26' E 139°45'0 0.0
2016-Feb-10 22:33N 35°26' E 139°45'0 0.1
2016-Feb-10 21:33N 35°26' E 139°45'0 0.0
2016-Feb-10 20:33N 35°26' E 139°45'0 0.0
2016-Feb-10 19:33N 35°26' E 139°45'0 0.0
2016-Feb-10 18:30N 35°26' E 139°45'0 0.0
2016-Feb-10 17:33N 35°26' E 139°45'0 0.0
2016-Feb-10 16:30N 35°26' E 139°45'0 0.0
2016-Feb-10 15:33N 35°26' E 139°45'0 0.0
2016-Feb-10 14:33N 35°26' E 139°45'0 0.0
2016-Feb-10 13:33N 35°26' E 139°45'0 0.0
2016-Feb-10 12:33N 35°26' E 139°45'0 0.0
2016-Feb-10 11:33N 35°26' E 139°45'0 0.0
2016-Feb-10 10:33N 35°26' E 139°45'0 0.0
2016-Feb-10 09:33N 35°26' E 139°45'0 0.0
2016-Feb-10 08:33N 35°26' E 139°45'0 0.0
2016-Feb-10 07:33N 35°26' E 139°45'0 0.0
2016-Feb-10 06:33N 35°26' E 139°45'0 0.0
2016-Feb-10 05:33N 35°26' E 139°45'0 0.0
2016-Feb-10 04:33N 35°26' E 139°45'0 0.1
2016-Feb-10 03:33N 35°26' E 139°45'0 0.0
2016-Feb-10 02:33N 35°26' E 139°45'0 0.1
2016-Feb-10 01:33N 35°26' E 139°45'0 0.0
2016-Feb-10 00:33N 35°26' E 139°45'0 0.0
2016-Feb-09 23:33N 35°26' E 139°45'0 0.0
2016-Feb-09 22:33N 35°26' E 139°45'0 0.1
2016-Feb-09 21:32N 35°26' E 139°45'0 0.1
2016-Feb-09 20:33N 35°26' E 139°45'0 0.0
2016-Feb-09 19:32N 35°26' E 139°45'0 0.0
2016-Feb-09 18:32N 35°26' E 139°45'0 0.0
2016-Feb-09 17:33N 35°26' E 139°45'0 0.0
2016-Feb-09 16:33N 35°26' E 139°45'0 0.1
2016-Feb-09 15:33N 35°26' E 139°45'0 0.0
2016-Feb-09 14:32N 35°26' E 139°45'0 0.0
2016-Feb-09 13:32N 35°26' E 139°45'0 0.0
2016-Feb-09 12:33N 35°26' E 139°45'0 0.0
2016-Feb-09 11:33N 35°26' E 139°45'0 0.0
2016-Feb-09 10:32N 35°26' E 139°45'0 0.0
2016-Feb-09 09:33N 35°26' E 139°45'0 0.1
2016-Feb-09 08:34N 35°26' E 139°45'0 0.1
2016-Feb-09 07:33N 35°27' E 139°45'0 0.0
2016-Feb-09 06:33N 35°27' E 139°45'0 0.0
2016-Feb-09 05:34N 35°27' E 139°45'0 0.0
2016-Feb-09 04:33N 35°27' E 139°45'0 0.0
2016-Feb-09 03:33N 35°27' E 139°45'0 0.0
2016-Feb-09 02:33N 35°27' E 139°45'0 0.0
2016-Feb-09 01:30N 35°27' E 139°45'0 0.2
2016-Feb-09 00:30N 35°26' E 139°45'0 0.0
2016-Feb-08 23:33N 35°26' E 139°45'0 0.5
2016-Feb-08 22:34N 35°27' E 139°46'1211.8
2016-Feb-08 21:33N 35°33' E 139°58'7 7.0
2016-Feb-08 20:33N 35°36' E 140°05'0 0.0
2016-Feb-08 19:33N 35°36' E 140°05'0 0.0
2016-Feb-08 18:33N 35°36' E 140°05'0 0.0
2016-Feb-08 17:33N 35°36' E 140°05'0 0.0
2016-Feb-08 16:27N 35°36' E 140°05'0 0.0
2016-Feb-08 15:33N 35°36' E 140°05'0 0.0
2016-Feb-08 14:33N 35°36' E 140°05'0 0.0
2016-Feb-08 13:33N 35°36' E 140°05'0 0.0
2016-Feb-08 12:33N 35°36' E 140°05'0 0.0
2016-Feb-08 11:33N 35°36' E 140°05'0 0.0
2016-Feb-08 10:21N 35°36' E 140°05'0 0.0
2016-Feb-08 09:21N 35°36' E 140°05'0 0.0
2016-Feb-08 08:27N 35°36' E 140°05'0 0.0
2016-Feb-08 07:33N 35°36' E 140°05'0 0.0
2016-Feb-08 06:33N 35°36' E 140°05'0 0.0
2016-Feb-08 05:27N 35°36' E 140°05'0 0.0
2016-Feb-08 04:33N 35°36' E 140°05'0 0.0
2016-Feb-08 03:27N 35°36' E 140°05'0 0.0
2016-Feb-08 02:33N 35°36' E 140°05'0 0.0
2016-Feb-08 01:27N 35°36' E 140°05'0 0.0
2016-Feb-08 00:33N 35°36' E 140°05'0 0.0
2016-Feb-07 23:33N 35°36' E 140°05'0 0.0
2016-Feb-07 22:33N 35°36' E 140°05'5 4.8
2016-Feb-07 21:33N 35°34' E 140°00'2 2.3
2016-Feb-07 20:32N 35°32' E 139°58'0 0.0
2016-Feb-07 19:32N 35°32' E 139°58'0 0.0
2016-Feb-07 18:29N 35°32' E 139°58'0 0.0
2016-Feb-07 17:29N 35°32' E 139°58'0 0.1
2016-Feb-07 16:32N 35°32' E 139°58'0 0.0
2016-Feb-07 15:32N 35°32' E 139°58'0 0.0
2016-Feb-07 14:32N 35°32' E 139°58'0 0.0
2016-Feb-07 13:29N 35°32' E 139°58'0 0.0
2016-Feb-07 12:32N 35°32' E 139°58'0 0.0
2016-Feb-07 11:29N 35°32' E 139°58'0 0.0
2016-Feb-07 10:32N 35°32' E 139°58'0 0.0
2016-Feb-07 09:32N 35°32' E 139°58'0 0.1
2016-Feb-07 08:32N 35°32' E 139°58'0 0.0
2016-Feb-07 07:32N 35°32' E 139°58'0 0.0
2016-Feb-07 06:26N 35°32' E 139°58'0 0.0
2016-Feb-07 05:29N 35°32' E 139°58'0 0.0
2016-Feb-07 04:29N 35°32' E 139°58'0 0.0
2016-Feb-07 03:26N 35°32' E 139°58'0 0.0
2016-Feb-07 02:32N 35°32' E 139°58'0 0.0
2016-Feb-07 01:32N 35°32' E 139°58'0 0.0
2016-Feb-07 00:32N 35°32' E 139°58'0 0.1
2016-Feb-06 23:32N 35°32' E 139°58'0 0.0
2016-Feb-06 22:32N 35°32' E 139°58'0 0.0
2016-Feb-06 21:32N 35°32' E 139°58'0 0.0
2016-Feb-06 20:32N 35°32' E 139°58'0 0.0
2016-Feb-06 19:29N 35°32' E 139°58'0 0.0
2016-Feb-06 18:32N 35°32' E 139°58'0 0.0
2016-Feb-06 17:32N 35°32' E 139°58'0 0.0
2016-Feb-06 16:32N 35°32' E 139°58'0 0.0
2016-Feb-06 15:32N 35°32' E 139°58'0 0.0
2016-Feb-06 14:29N 35°32' E 139°58'0 0.1
2016-Feb-06 13:32N 35°32' E 139°58'0 0.0
2016-Feb-06 12:32N 35°32' E 139°58'1 1.0
2016-Feb-06 11:33N 35°32' E 139°57'9 9.2
2016-Feb-06 10:33N 35°35' E 139°47'0 0.2
2016-Feb-06 09:31N 35°36' E 139°47'0 0.0
2016-Feb-06 08:31N 35°36' E 139°47'0 0.0
2016-Feb-06 07:25N 35°36' E 139°47'0 0.0
2016-Feb-06 06:31N 35°36' E 139°47'0 0.0
2016-Feb-06 05:31N 35°36' E 139°47'0 0.0
2016-Feb-06 04:31N 35°36' E 139°47'0 0.0
2016-Feb-06 03:31N 35°36' E 139°47'0 0.0
2016-Feb-06 02:31N 35°36' E 139°47'0 0.0
2016-Feb-06 01:31N 35°36' E 139°47'0 0.0
2016-Feb-06 00:22N 35°36' E 139°47'0 0.0
2016-Feb-05 23:31N 35°36' E 139°47'0 0.0
2016-Feb-05 22:28N 35°36' E 139°47'0 0.0
2016-Feb-05 21:31N 35°36' E 139°47'0 0.0
2016-Feb-05 20:31N 35°36' E 139°47'0 0.0
2016-Feb-05 19:31N 35°36' E 139°47'0 0.0
2016-Feb-05 18:31N 35°36' E 139°47'0 0.0
2016-Feb-05 17:28N 35°36' E 139°47'0 0.0
2016-Feb-05 16:28N 35°36' E 139°47'0 0.0
2016-Feb-05 15:31N 35°36' E 139°47'0 0.0
2016-Feb-05 14:31N 35°36' E 139°47'0 0.0
2016-Feb-05 13:28N 35°36' E 139°47'0 0.0
2016-Feb-05 12:28N 35°36' E 139°47'0 0.0
2016-Feb-05 11:31N 35°36' E 139°47'0 0.0
2016-Feb-05 10:31N 35°36' E 139°47'0 0.0
2016-Feb-05 09:31N 35°36' E 139°47'0 0.0
2016-Feb-05 08:31N 35°36' E 139°47'0 0.0
2016-Feb-05 07:31N 35°36' E 139°47'0 0.0
2016-Feb-05 06:31N 35°36' E 139°47'0 0.0
2016-Feb-05 05:28N 35°36' E 139°47'0 0.0
2016-Feb-05 04:31N 35°36' E 139°47'0 0.0
2016-Feb-05 03:28N 35°36' E 139°47'0 0.0
2016-Feb-05 02:31N 35°36' E 139°47'0 0.0
2016-Feb-05 01:31N 35°36' E 139°47'0 0.0
2016-Feb-05 00:31N 35°36' E 139°47'0 0.0
2016-Feb-04 23:31N 35°36' E 139°47'0 0.0
2016-Feb-04 22:25N 35°36' E 139°47'0 0.0
2016-Feb-04 21:31N 35°36' E 139°47'0 0.0
2016-Feb-04 20:31N 35°36' E 139°47'0 0.0
2016-Feb-04 19:28N 35°36' E 139°47'0 0.0
2016-Feb-04 18:31N 35°36' E 139°47'0 0.0
2016-Feb-04 17:31N 35°36' E 139°47'0 0.0
2016-Feb-04 16:31N 35°36' E 139°47'0 0.0
2016-Feb-04 15:28N 35°36' E 139°47'0 0.0
2016-Feb-04 14:31N 35°36' E 139°47'0 0.0
2016-Feb-04 13:31N 35°36' E 139°47'0 0.0
2016-Feb-04 12:28N 35°36' E 139°47'0 0.0
2016-Feb-04 11:28N 35°36' E 139°47'0 0.0
2016-Feb-04 10:31N 35°36' E 139°47'0 0.0
2016-Feb-04 09:31N 35°36' E 139°47'0 0.0
2016-Feb-04 08:34N 35°36' E 139°47'0 0.0
2016-Feb-04 07:31N 35°36' E 139°47'0 0.0
2016-Feb-04 06:34N 35°36' E 139°47'0 0.0
2016-Feb-04 05:34N 35°36' E 139°47'0 0.0
2016-Feb-04 04:34N 35°36' E 139°47'0 0.0
2016-Feb-04 03:31N 35°36' E 139°47'4 4.6
2016-Feb-04 02:33N 35°33' E 139°51'1111.4
2016-Feb-04 01:33N 35°22' E 139°46'1211.9
2016-Feb-04 00:33N 35°10' E 139°47'8 7.5
2016-Feb-03 23:33N 35°03' E 139°43'  
Track history (hours):
 
Tides and Currents Weather Stations Pressure Air Temp Water Temp Dewpoint Dewpoint Depression Visibility Wind Speed Wind Dir Waves Ship Positions

K&a Sp

Last reported at 2016-Feb-12 00:32 UTC. Time now 2016-Feb-12 01:27 UTC.
Position N 35°29' E 139°43'.

Length 177 m; draft 7.1 m.

Type: Cargo ship. MMSI: 354085000.

Date/timePositionNaut miles runAvg speedWind from/ knotsBaromVisibWave heightAir tempDewpointWater temp
2016-Feb-12 00:32N 35°29' E 139°43'0 0.0
2016-Feb-11 23:32N 35°29' E 139°43'0 0.0
2016-Feb-11 22:32N 35°29' E 139°43'3 3.5
2016-Feb-11 21:33N 35°27' E 139°45'0 0.1
2016-Feb-11 20:33N 35°27' E 139°45'0 0.1
2016-Feb-11 19:33N 35°27' E 139°45'0 0.0
2016-Feb-11 18:33N 35°27' E 139°45'0 0.1
2016-Feb-11 17:33N 35°27' E 139°45'0 0.1
2016-Feb-11 16:33N 35°27' E 139°45'0 0.0
2016-Feb-11 15:33N 35°26' E 139°45'0 0.0
2016-Feb-11 14:30N 35°27' E 139°45'0 0.0
2016-Feb-11 13:33N 35°27' E 139°45'0 0.0
2016-Feb-11 12:33N 35°27' E 139°45'0 0.0
2016-Feb-11 11:33N 35°27' E 139°45'0 0.0
2016-Feb-11 10:33N 35°27' E 139°45'0 0.0
2016-Feb-11 09:33N 35°27' E 139°45'0 0.1
2016-Feb-11 08:33N 35°27' E 139°45'0 0.0
2016-Feb-11 07:33N 35°27' E 139°45'0 0.0
2016-Feb-11 06:33N 35°27' E 139°45'0 0.0
2016-Feb-11 05:33N 35°27' E 139°45'0 0.1
2016-Feb-11 04:33N 35°27' E 139°45'0 0.0
2016-Feb-11 03:33N 35°26' E 139°45'0 0.0
2016-Feb-11 02:33N 35°26' E 139°45'0 0.0
2016-Feb-11 01:33N 35°26' E 139°45'0 0.1
2016-Feb-11 00:33N 35°26' E 139°45'0 0.0
2016-Feb-10 23:33N 35°26' E 139°45'0 0.0
2016-Feb-10 22:33N 35°26' E 139°45'0 0.1
2016-Feb-10 21:33N 35°26' E 139°45'0 0.0
2016-Feb-10 20:33N 35°26' E 139°45'0 0.0
2016-Feb-10 19:33N 35°26' E 139°45'0 0.0
2016-Feb-10 18:30N 35°26' E 139°45'0 0.0
2016-Feb-10 17:33N 35°26' E 139°45'0 0.0
2016-Feb-10 16:30N 35°26' E 139°45'0 0.0
2016-Feb-10 15:33N 35°26' E 139°45'0 0.0
2016-Feb-10 14:33N 35°26' E 139°45'0 0.0
2016-Feb-10 13:33N 35°26' E 139°45'0 0.0
2016-Feb-10 12:33N 35°26' E 139°45'0 0.0
2016-Feb-10 11:33N 35°26' E 139°45'0 0.0
2016-Feb-10 10:33N 35°26' E 139°45'0 0.0
2016-Feb-10 09:33N 35°26' E 139°45'0 0.0
2016-Feb-10 08:33N 35°26' E 139°45'0 0.0
2016-Feb-10 07:33N 35°26' E 139°45'0 0.0
2016-Feb-10 06:33N 35°26' E 139°45'0 0.0
2016-Feb-10 05:33N 35°26' E 139°45'0 0.0
2016-Feb-10 04:33N 35°26' E 139°45'0 0.1
2016-Feb-10 03:33N 35°26' E 139°45'0 0.0
2016-Feb-10 02:33N 35°26' E 139°45'0 0.1
2016-Feb-10 01:33N 35°26' E 139°45'0 0.0
2016-Feb-10 00:33N 35°26' E 139°45'0 0.0
2016-Feb-09 23:33N 35°26' E 139°45'0 0.0
2016-Feb-09 22:33N 35°26' E 139°45'0 0.1
2016-Feb-09 21:32N 35°26' E 139°45'0 0.1
2016-Feb-09 20:33N 35°26' E 139°45'0 0.0
2016-Feb-09 19:32N 35°26' E 139°45'0 0.0
2016-Feb-09 18:32N 35°26' E 139°45'0 0.0
2016-Feb-09 17:33N 35°26' E 139°45'0 0.0
2016-Feb-09 16:33N 35°26' E 139°45'0 0.1
2016-Feb-09 15:33N 35°26' E 139°45'0 0.0
2016-Feb-09 14:32N 35°26' E 139°45'0 0.0
2016-Feb-09 13:32N 35°26' E 139°45'0 0.0
2016-Feb-09 12:33N 35°26' E 139°45'0 0.0
2016-Feb-09 11:33N 35°26' E 139°45'0 0.0
2016-Feb-09 10:32N 35°26' E 139°45'0 0.0
2016-Feb-09 09:33N 35°26' E 139°45'0 0.1
2016-Feb-09 08:34N 35°26' E 139°45'0 0.1
2016-Feb-09 07:33N 35°27' E 139°45'0 0.0
2016-Feb-09 06:33N 35°27' E 139°45'0 0.0
2016-Feb-09 05:34N 35°27' E 139°45'0 0.0
2016-Feb-09 04:33N 35°27' E 139°45'0 0.0
2016-Feb-09 03:33N 35°27' E 139°45'0 0.0
2016-Feb-09 02:33N 35°27' E 139°45'0 0.0
2016-Feb-09 01:30N 35°27' E 139°45'0 0.2
2016-Feb-09 00:30N 35°26' E 139°45'0 0.0
2016-Feb-08 23:33N 35°26' E 139°45'0 0.5
2016-Feb-08 22:34N 35°27' E 139°46'1211.8
2016-Feb-08 21:33N 35°33' E 139°58'7 7.0
2016-Feb-08 20:33N 35°36' E 140°05'0 0.0
2016-Feb-08 19:33N 35°36' E 140°05'0 0.0
2016-Feb-08 18:33N 35°36' E 140°05'0 0.0
2016-Feb-08 17:33N 35°36' E 140°05'0 0.0
2016-Feb-08 16:27N 35°36' E 140°05'0 0.0
2016-Feb-08 15:33N 35°36' E 140°05'0 0.0
2016-Feb-08 14:33N 35°36' E 140°05'0 0.0
2016-Feb-08 13:33N 35°36' E 140°05'0 0.0
2016-Feb-08 12:33N 35°36' E 140°05'0 0.0
2016-Feb-08 11:33N 35°36' E 140°05'0 0.0
2016-Feb-08 10:21N 35°36' E 140°05'0 0.0
2016-Feb-08 09:21N 35°36' E 140°05'0 0.0
2016-Feb-08 08:27N 35°36' E 140°05'0 0.0
2016-Feb-08 07:33N 35°36' E 140°05'0 0.0
2016-Feb-08 06:33N 35°36' E 140°05'0 0.0
2016-Feb-08 05:27N 35°36' E 140°05'0 0.0
2016-Feb-08 04:33N 35°36' E 140°05'0 0.0
2016-Feb-08 03:27N 35°36' E 140°05'0 0.0
2016-Feb-08 02:33N 35°36' E 140°05'0 0.0
2016-Feb-08 01:27N 35°36' E 140°05'0 0.0
2016-Feb-08 00:33N 35°36' E 140°05'0 0.0
2016-Feb-07 23:33N 35°36' E 140°05'0 0.0
2016-Feb-07 22:33N 35°36' E 140°05'5 4.8
2016-Feb-07 21:33N 35°34' E 140°00'2 2.3
2016-Feb-07 20:32N 35°32' E 139°58'0 0.0
2016-Feb-07 19:32N 35°32' E 139°58'0 0.0
2016-Feb-07 18:29N 35°32' E 139°58'0 0.0
2016-Feb-07 17:29N 35°32' E 139°58'0 0.1
2016-Feb-07 16:32N 35°32' E 139°58'0 0.0
2016-Feb-07 15:32N 35°32' E 139°58'0 0.0
2016-Feb-07 14:32N 35°32' E 139°58'0 0.0
2016-Feb-07 13:29N 35°32' E 139°58'0 0.0
2016-Feb-07 12:32N 35°32' E 139°58'0 0.0
2016-Feb-07 11:29N 35°32' E 139°58'0 0.0
2016-Feb-07 10:32N 35°32' E 139°58'0 0.0
2016-Feb-07 09:32N 35°32' E 139°58'0 0.1
2016-Feb-07 08:32N 35°32' E 139°58'0 0.0
2016-Feb-07 07:32N 35°32' E 139°58'0 0.0
2016-Feb-07 06:26N 35°32' E 139°58'0 0.0
2016-Feb-07 05:29N 35°32' E 139°58'0 0.0
2016-Feb-07 04:29N 35°32' E 139°58'0 0.0
2016-Feb-07 03:26N 35°32' E 139°58'0 0.0
2016-Feb-07 02:32N 35°32' E 139°58'0 0.0
2016-Feb-07 01:32N 35°32' E 139°58'0 0.0
2016-Feb-07 00:32N 35°32' E 139°58'0 0.1
2016-Feb-06 23:32N 35°32' E 139°58'0 0.0
2016-Feb-06 22:32N 35°32' E 139°58'0 0.0
2016-Feb-06 21:32N 35°32' E 139°58'0 0.0
2016-Feb-06 20:32N 35°32' E 139°58'0 0.0
2016-Feb-06 19:29N 35°32' E 139°58'0 0.0
2016-Feb-06 18:32N 35°32' E 139°58'0 0.0
2016-Feb-06 17:32N 35°32' E 139°58'0 0.0
2016-Feb-06 16:32N 35°32' E 139°58'0 0.0
2016-Feb-06 15:32N 35°32' E 139°58'0 0.0
2016-Feb-06 14:29N 35°32' E 139°58'0 0.1
2016-Feb-06 13:32N 35°32' E 139°58'0 0.0
2016-Feb-06 12:32N 35°32' E 139°58'1 1.0
2016-Feb-06 11:33N 35°32' E 139°57'9 9.2
2016-Feb-06 10:33N 35°35' E 139°47'0 0.2
2016-Feb-06 09:31N 35°36' E 139°47'0 0.0
2016-Feb-06 08:31N 35°36' E 139°47'0 0.0
2016-Feb-06 07:25N 35°36' E 139°47'0 0.0
2016-Feb-06 06:31N 35°36' E 139°47'0 0.0
2016-Feb-06 05:31N 35°36' E 139°47'0 0.0
2016-Feb-06 04:31N 35°36' E 139°47'0 0.0
2016-Feb-06 03:31N 35°36' E 139°47'0 0.0
2016-Feb-06 02:31N 35°36' E 139°47'0 0.0
2016-Feb-06 01:31N 35°36' E 139°47'0 0.0
2016-Feb-06 00:22N 35°36' E 139°47'0 0.0
2016-Feb-05 23:31N 35°36' E 139°47'0 0.0
2016-Feb-05 22:28N 35°36' E 139°47'0 0.0
2016-Feb-05 21:31N 35°36' E 139°47'0 0.0
2016-Feb-05 20:31N 35°36' E 139°47'0 0.0
2016-Feb-05 19:31N 35°36' E 139°47'0 0.0
2016-Feb-05 18:31N 35°36' E 139°47'0 0.0
2016-Feb-05 17:28N 35°36' E 139°47'0 0.0
2016-Feb-05 16:28N 35°36' E 139°47'0 0.0
2016-Feb-05 15:31N 35°36' E 139°47'0 0.0
2016-Feb-05 14:31N 35°36' E 139°47'0 0.0
2016-Feb-05 13:28N 35°36' E 139°47'0 0.0
2016-Feb-05 12:28N 35°36' E 139°47'0 0.0
2016-Feb-05 11:31N 35°36' E 139°47'0 0.0
2016-Feb-05 10:31N 35°36' E 139°47'0 0.0
2016-Feb-05 09:31N 35°36' E 139°47'0 0.0
2016-Feb-05 08:31N 35°36' E 139°47'0 0.0
2016-Feb-05 07:31N 35°36' E 139°47'0 0.0
2016-Feb-05 06:31N 35°36' E 139°47'0 0.0
2016-Feb-05 05:28N 35°36' E 139°47'0 0.0
2016-Feb-05 04:31N 35°36' E 139°47'0 0.0
2016-Feb-05 03:28N 35°36' E 139°47'0 0.0
2016-Feb-05 02:31N 35°36' E 139°47'0 0.0
2016-Feb-05 01:31N 35°36' E 139°47'0 0.0
2016-Feb-05 00:31N 35°36' E 139°47'0 0.0
2016-Feb-04 23:31N 35°36' E 139°47'0 0.0
2016-Feb-04 22:25N 35°36' E 139°47'0 0.0
2016-Feb-04 21:31N 35°36' E 139°47'0 0.0
2016-Feb-04 20:31N 35°36' E 139°47'0 0.0
2016-Feb-04 19:28N 35°36' E 139°47'0 0.0
2016-Feb-04 18:31N 35°36' E 139°47'0 0.0
2016-Feb-04 17:31N 35°36' E 139°47'0 0.0
2016-Feb-04 16:31N 35°36' E 139°47'0 0.0
2016-Feb-04 15:28N 35°36' E 139°47'0 0.0
2016-Feb-04 14:31N 35°36' E 139°47'0 0.0
2016-Feb-04 13:31N 35°36' E 139°47'0 0.0
2016-Feb-04 12:28N 35°36' E 139°47'0 0.0
2016-Feb-04 11:28N 35°36' E 139°47'0 0.0
2016-Feb-04 10:31N 35°36' E 139°47'0 0.0
2016-Feb-04 09:31N 35°36' E 139°47'0 0.0
2016-Feb-04 08:34N 35°36' E 139°47'0 0.0
2016-Feb-04 07:31N 35°36' E 139°47'0 0.0
2016-Feb-04 06:34N 35°36' E 139°47'0 0.0
2016-Feb-04 05:34N 35°36' E 139°47'0 0.0
2016-Feb-04 04:34N 35°36' E 139°47'0 0.0
2016-Feb-04 03:31N 35°36' E 139°47'4 4.6
2016-Feb-04 02:33N 35°33' E 139°51'1111.4
2016-Feb-04 01:33N 35°22' E 139°46'1211.9
2016-Feb-04 00:33N 35°10' E 139°47'8 7.5
2016-Feb-03 23:33N 35°03' E 139°43'  

Dump ship's entire track history